sensor_id;sensor_type;location;lat;lon;timestamp;P1;P2;P0
12542;PMS3003;6337;49.556;25.594;2023-09-18T00:01:12;7.13;6.23;
12542;PMS3003;6337;49.556;25.594;2023-09-18T00:03:40;6.90;5.20;
12542;PMS3003;6337;49.556;25.594;2023-09-18T00:06:10;9.43;6.70;
12542;PMS3003;6337;49.556;25.594;2023-09-18T00:08:39;11.13;7.10;
12542;PMS3003;6337;49.556;25.594;2023-09-18T00:11:08;12.53;6.40;
12542;PMS3003;6337;49.556;25.594;2023-09-18T00:13:46;10.90;5.93;
12542;PMS3003;6337;49.556;25.594;2023-09-18T00:16:14;7.30;6.33;
12542;PMS3003;6337;49.556;25.594;2023-09-18T00:18:43;12.10;5.50;
12542;PMS3003;6337;49.556;25.594;2023-09-18T00:21:13;12.40;5.17;
12542;PMS3003;6337;49.556;25.594;2023-09-18T00:23:41;8.17;6.33;
12542;PMS3003;6337;49.556;25.594;2023-09-18T00:26:12;9.40;5.90;
12542;PMS3003;6337;49.556;25.594;2023-09-18T00:28:40;9.30;5.70;
12542;PMS3003;6337;49.556;25.594;2023-09-18T00:31:10;8.90;6.00;
12542;PMS3003;6337;49.556;25.594;2023-09-18T00:33:38;12.23;6.10;
12542;PMS3003;6337;49.556;25.594;2023-09-18T00:36:05;8.70;5.57;
12542;PMS3003;6337;49.556;25.594;2023-09-18T00:38:33;12.20;6.90;
12542;PMS3003;6337;49.556;25.594;2023-09-18T00:41:01;8.40;6.77;
12542;PMS3003;6337;49.556;25.594;2023-09-18T00:43:33;8.30;5.70;
12542;PMS3003;6337;49.556;25.594;2023-09-18T00:46:01;10.10;7.27;
12542;PMS3003;6337;49.556;25.594;2023-09-18T00:48:32;7.73;6.93;
12542;PMS3003;6337;49.556;25.594;2023-09-18T00:51:00;13.87;7.77;
12542;PMS3003;6337;49.556;25.594;2023-09-18T00:53:28;10.30;6.97;
12542;PMS3003;6337;49.556;25.594;2023-09-18T00:55:56;12.00;7.33;
12542;PMS3003;6337;49.556;25.594;2023-09-18T00:58:26;9.20;7.07;
12542;PMS3003;6337;49.556;25.594;2023-09-18T01:00:55;12.43;7.37;
12542;PMS3003;6337;49.556;25.594;2023-09-18T01:03:22;10.40;8.30;
12542;PMS3003;6337;49.556;25.594;2023-09-18T01:05:53;11.53;7.97;
12542;PMS3003;6337;49.556;25.594;2023-09-18T01:08:20;12.30;7.80;
12542;PMS3003;6337;49.556;25.594;2023-09-18T01:10:49;10.13;7.40;
12542;PMS3003;6337;49.556;25.594;2023-09-18T01:13:27;10.50;8.07;
12542;PMS3003;6337;49.556;25.594;2023-09-18T01:16:00;10.63;7.43;
12542;PMS3003;6337;49.556;25.594;2023-09-18T01:18:31;11.80;7.97;
12542;PMS3003;6337;49.556;25.594;2023-09-18T01:20:59;12.77;7.40;
12542;PMS3003;6337;49.556;25.594;2023-09-18T01:23:31;11.93;8.27;
12542;PMS3003;6337;49.556;25.594;2023-09-18T01:25:58;14.03;8.50;
12542;PMS3003;6337;49.556;25.594;2023-09-18T01:28:25;11.93;8.57;
12542;PMS3003;6337;49.556;25.594;2023-09-18T01:30:53;12.80;9.07;
12542;PMS3003;6337;49.556;25.594;2023-09-18T01:33:21;12.17;8.47;
12542;PMS3003;6337;49.556;25.594;2023-09-18T01:35:50;10.47;8.23;
12542;PMS3003;6337;49.556;25.594;2023-09-18T01:38:22;15.93;9.80;
12542;PMS3003;6337;49.556;25.594;2023-09-18T01:40:54;9.23;7.93;
12542;PMS3003;6337;49.556;25.594;2023-09-18T01:43:21;16.03;8.50;
12542;PMS3003;6337;49.556;25.594;2023-09-18T01:45:48;17.00;8.70;
12542;PMS3003;6337;49.556;25.594;2023-09-18T01:48:16;15.40;7.33;
12542;PMS3003;6337;49.556;25.594;2023-09-18T01:50:43;13.37;7.60;
12542;PMS3003;6337;49.556;25.594;2023-09-18T01:53:11;11.10;6.70;
12542;PMS3003;6337;49.556;25.594;2023-09-18T01:55:39;9.97;7.10;
12542;PMS3003;6337;49.556;25.594;2023-09-18T01:58:08;12.73;6.77;
12542;PMS3003;6337;49.556;25.594;2023-09-18T02:00:35;12.63;6.93;
12542;PMS3003;6337;49.556;25.594;2023-09-18T02:03:03;8.33;7.33;
12542;PMS3003;6337;49.556;25.594;2023-09-18T02:05:31;13.90;7.80;
12542;PMS3003;6337;49.556;25.594;2023-09-18T02:08:00;14.17;8.57;
12542;PMS3003;6337;49.556;25.594;2023-09-18T02:10:28;9.70;7.87;
12542;PMS3003;6337;49.556;25.594;2023-09-18T02:12:56;18.53;8.67;
12542;PMS3003;6337;49.556;25.594;2023-09-18T02:15:25;10.23;6.80;
12542;PMS3003;6337;49.556;25.594;2023-09-18T02:17:52;14.43;8.43;
12542;PMS3003;6337;49.556;25.594;2023-09-18T02:20:20;13.63;8.47;
12542;PMS3003;6337;49.556;25.594;2023-09-18T02:22:47;11.23;7.73;
12542;PMS3003;6337;49.556;25.594;2023-09-18T02:25:15;12.63;7.97;
12542;PMS3003;6337;49.556;25.594;2023-09-18T02:27:42;12.97;7.13;
12542;PMS3003;6337;49.556;25.594;2023-09-18T02:30:11;12.80;7.87;
12542;PMS3003;6337;49.556;25.594;2023-09-18T02:32:42;13.93;7.07;
12542;PMS3003;6337;49.556;25.594;2023-09-18T02:35:11;9.53;8.30;
12542;PMS3003;6337;49.556;25.594;2023-09-18T02:37:38;11.87;7.70;
12542;PMS3003;6337;49.556;25.594;2023-09-18T02:40:06;11.20;8.10;
12542;PMS3003;6337;49.556;25.594;2023-09-18T02:42:35;12.67;7.80;
12542;PMS3003;6337;49.556;25.594;2023-09-18T02:45:03;13.73;8.30;
12542;PMS3003;6337;49.556;25.594;2023-09-18T02:47:34;14.60;7.87;
12542;PMS3003;6337;49.556;25.594;2023-09-18T02:50:09;8.10;6.33;
12542;PMS3003;6337;49.556;25.594;2023-09-18T02:52:40;16.33;8.77;
12542;PMS3003;6337;49.556;25.594;2023-09-18T02:55:07;10.60;7.60;
12542;PMS3003;6337;49.556;25.594;2023-09-18T02:57:36;8.67;7.80;
12542;PMS3003;6337;49.556;25.594;2023-09-18T03:00:04;10.60;7.60;
12542;PMS3003;6337;49.556;25.594;2023-09-18T03:02:33;8.90;8.00;
12542;PMS3003;6337;49.556;25.594;2023-09-18T03:05:01;19.43;8.00;
12542;PMS3003;6337;49.556;25.594;2023-09-18T03:07:31;12.30;8.77;
12542;PMS3003;6337;49.556;25.594;2023-09-18T03:09:58;14.30;8.97;
12542;PMS3003;6337;49.556;25.594;2023-09-18T03:12:26;9.20;7.67;
12542;PMS3003;6337;49.556;25.594;2023-09-18T03:14:53;11.53;7.57;
12542;PMS3003;6337;49.556;25.594;2023-09-18T03:17:20;18.13;8.40;
12542;PMS3003;6337;49.556;25.594;2023-09-18T03:19:48;10.63;8.37;
12542;PMS3003;6337;49.556;25.594;2023-09-18T03:22:18;10.90;8.20;
12542;PMS3003;6337;49.556;25.594;2023-09-18T03:24:46;10.57;7.07;
12542;PMS3003;6337;49.556;25.594;2023-09-18T03:27:13;16.97;8.47;
12542;PMS3003;6337;49.556;25.594;2023-09-18T03:29:41;10.50;7.67;
12542;PMS3003;6337;49.556;25.594;2023-09-18T03:32:10;10.20;7.50;
12542;PMS3003;6337;49.556;25.594;2023-09-18T03:34:37;9.20;7.47;
12542;PMS3003;6337;49.556;25.594;2023-09-18T03:37:07;14.77;7.33;
12542;PMS3003;6337;49.556;25.594;2023-09-18T03:39:36;11.83;7.70;
12542;PMS3003;6337;49.556;25.594;2023-09-18T03:42:03;8.90;7.00;
12542;PMS3003;6337;49.556;25.594;2023-09-18T03:44:32;12.10;8.47;
12542;PMS3003;6337;49.556;25.594;2023-09-18T03:47:01;9.27;7.80;
12542;PMS3003;6337;49.556;25.594;2023-09-18T03:49:28;13.90;8.33;
12542;PMS3003;6337;49.556;25.594;2023-09-18T03:52:01;12.17;9.00;
12542;PMS3003;6337;49.556;25.594;2023-09-18T03:54:29;11.40;8.20;
12542;PMS3003;6337;49.556;25.594;2023-09-18T03:59:49;8.67;7.43;
12542;PMS3003;6337;49.556;25.594;2023-09-18T04:02:16;15.70;8.87;
12542;PMS3003;6337;49.556;25.594;2023-09-18T04:04:44;13.97;7.93;
12542;PMS3003;6337;49.556;25.594;2023-09-18T04:07:13;10.43;7.90;
12542;PMS3003;6337;49.556;25.594;2023-09-18T04:09:42;11.50;7.60;
12542;PMS3003;6337;49.556;25.594;2023-09-18T04:12:10;9.87;8.10;
12542;PMS3003;6337;49.556;25.594;2023-09-18T04:17:24;13.33;10.30;
12542;PMS3003;6337;49.556;25.594;2023-09-18T04:19:53;12.73;7.10;
12542;PMS3003;6337;49.556;25.594;2023-09-18T04:22:23;9.13;7.83;
12542;PMS3003;6337;49.556;25.594;2023-09-18T04:24:50;12.90;7.60;
12542;PMS3003;6337;49.556;25.594;2023-09-18T04:27:18;12.93;8.47;
12542;PMS3003;6337;49.556;25.594;2023-09-18T04:29:45;16.83;7.60;
12542;PMS3003;6337;49.556;25.594;2023-09-18T04:32:14;20.60;9.60;
12542;PMS3003;6337;49.556;25.594;2023-09-18T04:34:43;14.23;9.27;
12542;PMS3003;6337;49.556;25.594;2023-09-18T04:37:11;12.07;7.67;
12542;PMS3003;6337;49.556;25.594;2023-09-18T04:39:38;19.23;9.07;
12542;PMS3003;6337;49.556;25.594;2023-09-18T04:42:05;16.47;9.73;
12542;PMS3003;6337;49.556;25.594;2023-09-18T04:44:34;19.87;10.33;
12542;PMS3003;6337;49.556;25.594;2023-09-18T04:47:02;20.60;8.67;
12542;PMS3003;6337;49.556;25.594;2023-09-18T04:49:31;11.20;9.63;
12542;PMS3003;6337;49.556;25.594;2023-09-18T04:51:58;16.37;8.80;
12542;PMS3003;6337;49.556;25.594;2023-09-18T04:54:25;13.70;8.73;
12542;PMS3003;6337;49.556;25.594;2023-09-18T04:56:56;16.03;9.20;
12542;PMS3003;6337;49.556;25.594;2023-09-18T04:59:25;18.50;9.80;
12542;PMS3003;6337;49.556;25.594;2023-09-18T05:01:53;32.67;10.00;
12542;PMS3003;6337;49.556;25.594;2023-09-18T05:04:21;31.60;8.50;
12542;PMS3003;6337;49.556;25.594;2023-09-18T05:06:53;17.53;9.23;
12542;PMS3003;6337;49.556;25.594;2023-09-18T05:09:21;19.23;9.63;
12542;PMS3003;6337;49.556;25.594;2023-09-18T05:11:49;19.23;8.83;
12542;PMS3003;6337;49.556;25.594;2023-09-18T05:14:17;26.50;10.23;
12542;PMS3003;6337;49.556;25.594;2023-09-18T05:16:44;23.37;8.43;
12542;PMS3003;6337;49.556;25.594;2023-09-18T05:19:12;13.87;8.63;
12542;PMS3003;6337;49.556;25.594;2023-09-18T05:21:41;17.53;8.33;
12542;PMS3003;6337;49.556;25.594;2023-09-18T05:24:11;14.53;8.43;
12542;PMS3003;6337;49.556;25.594;2023-09-18T05:26:39;10.40;8.40;
12542;PMS3003;6337;49.556;25.594;2023-09-18T05:29:06;14.03;8.50;
12542;PMS3003;6337;49.556;25.594;2023-09-18T05:31:36;17.77;9.47;
12542;PMS3003;6337;49.556;25.594;2023-09-18T05:34:07;12.30;7.63;
12542;PMS3003;6337;49.556;25.594;2023-09-18T05:36:34;16.10;8.50;
12542;PMS3003;6337;49.556;25.594;2023-09-18T05:39:02;16.10;8.30;
12542;PMS3003;6337;49.556;25.594;2023-09-18T05:41:34;11.20;8.03;
12542;PMS3003;6337;49.556;25.594;2023-09-18T05:44:02;13.17;8.67;
12542;PMS3003;6337;49.556;25.594;2023-09-18T05:46:31;12.70;8.43;
12542;PMS3003;6337;49.556;25.594;2023-09-18T05:49:00;15.97;9.40;
12542;PMS3003;6337;49.556;25.594;2023-09-18T05:51:28;20.20;8.43;
12542;PMS3003;6337;49.556;25.594;2023-09-18T05:53:56;16.83;7.63;
12542;PMS3003;6337;49.556;25.594;2023-09-18T05:56:25;20.83;9.43;
12542;PMS3003;6337;49.556;25.594;2023-09-18T05:58:54;14.93;7.10;
12542;PMS3003;6337;49.556;25.594;2023-09-18T06:01:22;21.60;8.50;
12542;PMS3003;6337;49.556;25.594;2023-09-18T06:03:51;16.73;8.40;
12542;PMS3003;6337;49.556;25.594;2023-09-18T06:06:18;20.50;10.03;
12542;PMS3003;6337;49.556;25.594;2023-09-18T06:08:46;16.27;8.67;
12542;PMS3003;6337;49.556;25.594;2023-09-18T06:11:14;17.40;9.30;
12542;PMS3003;6337;49.556;25.594;2023-09-18T06:13:42;9.87;7.67;
12542;PMS3003;6337;49.556;25.594;2023-09-18T06:16:11;17.87;9.10;
12542;PMS3003;6337;49.556;25.594;2023-09-18T06:18:39;11.27;7.60;
12542;PMS3003;6337;49.556;25.594;2023-09-18T06:21:06;17.83;8.40;
12542;PMS3003;6337;49.556;25.594;2023-09-18T06:23:33;12.53;7.97;
12542;PMS3003;6337;49.556;25.594;2023-09-18T06:26:02;21.03;7.20;
12542;PMS3003;6337;49.556;25.594;2023-09-18T06:28:30;24.27;7.70;
12542;PMS3003;6337;49.556;25.594;2023-09-18T06:31:00;13.73;8.33;
12542;PMS3003;6337;49.556;25.594;2023-09-18T06:33:29;16.77;8.73;
12542;PMS3003;6337;49.556;25.594;2023-09-18T06:35:56;16.03;8.67;
12542;PMS3003;6337;49.556;25.594;2023-09-18T06:38:24;14.03;8.80;
12542;PMS3003;6337;49.556;25.594;2023-09-18T06:40:51;12.73;7.43;
12542;PMS3003;6337;49.556;25.594;2023-09-18T06:43:23;13.90;8.17;
12542;PMS3003;6337;49.556;25.594;2023-09-18T06:45:50;13.83;6.90;
12542;PMS3003;6337;49.556;25.594;2023-09-18T06:48:17;12.80;8.53;
12542;PMS3003;6337;49.556;25.594;2023-09-18T06:50:48;11.60;8.07;
12542;PMS3003;6337;49.556;25.594;2023-09-18T06:53:15;8.83;7.00;
12542;PMS3003;6337;49.556;25.594;2023-09-18T06:55:42;13.03;7.40;
12542;PMS3003;6337;49.556;25.594;2023-09-18T06:58:11;14.50;8.07;
12542;PMS3003;6337;49.556;25.594;2023-09-18T07:00:39;14.23;7.87;
12542;PMS3003;6337;49.556;25.594;2023-09-18T07:03:06;17.27;7.53;
12542;PMS3003;6337;49.556;25.594;2023-09-18T07:05:35;25.97;8.53;
12542;PMS3003;6337;49.556;25.594;2023-09-18T07:08:05;18.50;7.77;
12542;PMS3003;6337;49.556;25.594;2023-09-18T07:10:36;12.60;8.20;
12542;PMS3003;6337;49.556;25.594;2023-09-18T07:13:04;15.20;8.20;
12542;PMS3003;6337;49.556;25.594;2023-09-18T07:15:37;15.43;8.70;
12542;PMS3003;6337;49.556;25.594;2023-09-18T07:18:09;13.20;7.47;
12542;PMS3003;6337;49.556;25.594;2023-09-18T07:20:39;16.97;8.93;
12542;PMS3003;6337;49.556;25.594;2023-09-18T07:23:08;11.17;7.30;
12542;PMS3003;6337;49.556;25.594;2023-09-18T07:25:38;11.70;7.70;
12542;PMS3003;6337;49.556;25.594;2023-09-18T07:28:09;9.50;8.53;
12542;PMS3003;6337;49.556;25.594;2023-09-18T07:30:42;13.17;7.83;
12542;PMS3003;6337;49.556;25.594;2023-09-18T07:33:12;17.70;8.77;
12542;PMS3003;6337;49.556;25.594;2023-09-18T07:35:45;10.97;7.40;
12542;PMS3003;6337;49.556;25.594;2023-09-18T07:38:20;12.17;8.00;
12542;PMS3003;6337;49.556;25.594;2023-09-18T07:40:50;10.83;8.23;
12542;PMS3003;6337;49.556;25.594;2023-09-18T07:43:17;17.03;8.60;
12542;PMS3003;6337;49.556;25.594;2023-09-18T07:45:45;12.47;8.70;
12542;PMS3003;6337;49.556;25.594;2023-09-18T07:48:14;14.83;7.77;
12542;PMS3003;6337;49.556;25.594;2023-09-18T07:50:46;24.03;10.10;
12542;PMS3003;6337;49.556;25.594;2023-09-18T07:53:14;14.30;8.20;
12542;PMS3003;6337;49.556;25.594;2023-09-18T07:55:43;15.20;8.07;
12542;PMS3003;6337;49.556;25.594;2023-09-18T07:58:11;14.83;8.97;
12542;PMS3003;6337;49.556;25.594;2023-09-18T08:00:38;23.03;9.97;
12542;PMS3003;6337;49.556;25.594;2023-09-18T08:03:12;18.03;8.40;
12542;PMS3003;6337;49.556;25.594;2023-09-18T08:05:39;11.70;8.00;
12542;PMS3003;6337;49.556;25.594;2023-09-18T08:08:06;8.47;7.60;
12542;PMS3003;6337;49.556;25.594;2023-09-18T08:10:36;9.30;7.50;
12542;PMS3003;6337;49.556;25.594;2023-09-18T08:13:05;11.00;7.57;
12542;PMS3003;6337;49.556;25.594;2023-09-18T08:15:32;14.20;7.23;
12542;PMS3003;6337;49.556;25.594;2023-09-18T08:18:00;18.87;7.37;
12542;PMS3003;6337;49.556;25.594;2023-09-18T08:20:27;15.27;8.87;
12542;PMS3003;6337;49.556;25.594;2023-09-18T08:22:54;9.20;8.03;
12542;PMS3003;6337;49.556;25.594;2023-09-18T08:25:22;11.30;7.17;
12542;PMS3003;6337;49.556;25.594;2023-09-18T08:27:50;13.03;8.00;
12542;PMS3003;6337;49.556;25.594;2023-09-18T08:30:19;15.47;7.40;
12542;PMS3003;6337;49.556;25.594;2023-09-18T08:32:47;14.73;7.37;
12542;PMS3003;6337;49.556;25.594;2023-09-18T08:35:14;10.13;7.00;
12542;PMS3003;6337;49.556;25.594;2023-09-18T08:37:42;15.43;7.90;
12542;PMS3003;6337;49.556;25.594;2023-09-18T08:40:10;11.60;7.00;
12542;PMS3003;6337;49.556;25.594;2023-09-18T08:42:39;9.23;6.70;
12542;PMS3003;6337;49.556;25.594;2023-09-18T08:45:07;13.00;7.10;
12542;PMS3003;6337;49.556;25.594;2023-09-18T08:47:38;7.67;6.90;
12542;PMS3003;6337;49.556;25.594;2023-09-18T08:50:06;8.17;7.10;
12542;PMS3003;6337;49.556;25.594;2023-09-18T08:52:34;7.20;6.50;
12542;PMS3003;6337;49.556;25.594;2023-09-18T08:55:03;7.00;6.20;
12542;PMS3003;6337;49.556;25.594;2023-09-18T08:57:31;6.63;5.97;
12542;PMS3003;6337;49.556;25.594;2023-09-18T08:59:59;20.13;7.60;
12542;PMS3003;6337;49.556;25.594;2023-09-18T09:02:32;8.07;7.27;
12542;PMS3003;6337;49.556;25.594;2023-09-18T09:05:01;14.20;6.27;
12542;PMS3003;6337;49.556;25.594;2023-09-18T09:07:28;8.03;6.30;
12542;PMS3003;6337;49.556;25.594;2023-09-18T09:09:56;22.80;7.20;
12542;PMS3003;6337;49.556;25.594;2023-09-18T09:15:27;6.77;6.07;
12542;PMS3003;6337;49.556;25.594;2023-09-18T09:18:03;15.00;7.00;
12542;PMS3003;6337;49.556;25.594;2023-09-18T09:20:33;7.77;5.90;
12542;PMS3003;6337;49.556;25.594;2023-09-18T09:23:03;12.57;7.47;
12542;PMS3003;6337;49.556;25.594;2023-09-18T09:25:31;9.17;7.43;
12542;PMS3003;6337;49.556;25.594;2023-09-18T09:27:59;7.80;5.73;
12542;PMS3003;6337;49.556;25.594;2023-09-18T09:30:28;11.67;6.40;
12542;PMS3003;6337;49.556;25.594;2023-09-18T09:32:57;11.10;7.13;
12542;PMS3003;6337;49.556;25.594;2023-09-18T09:35:28;7.63;6.47;
12542;PMS3003;6337;49.556;25.594;2023-09-18T09:37:59;9.27;6.90;
12542;PMS3003;6337;49.556;25.594;2023-09-18T09:40:29;10.13;7.13;
12542;PMS3003;6337;49.556;25.594;2023-09-18T09:42:57;9.43;6.60;
12542;PMS3003;6337;49.556;25.594;2023-09-18T09:45:27;8.40;6.40;
12542;PMS3003;6337;49.556;25.594;2023-09-18T09:48:02;11.10;6.50;
12542;PMS3003;6337;49.556;25.594;2023-09-18T09:50:31;12.93;6.43;
12542;PMS3003;6337;49.556;25.594;2023-09-18T09:53:00;6.57;5.50;
12542;PMS3003;6337;49.556;25.594;2023-09-18T09:55:28;10.03;7.40;
12542;PMS3003;6337;49.556;25.594;2023-09-18T09:57:59;10.77;5.83;
12542;PMS3003;6337;49.556;25.594;2023-09-18T10:00:29;7.53;6.00;
12542;PMS3003;6337;49.556;25.594;2023-09-18T10:03:02;12.80;6.10;
12542;PMS3003;6337;49.556;25.594;2023-09-18T10:05:32;8.47;7.13;
12542;PMS3003;6337;49.556;25.594;2023-09-18T10:08:02;7.60;6.33;
12542;PMS3003;6337;49.556;25.594;2023-09-18T10:10:33;12.53;6.20;
12542;PMS3003;6337;49.556;25.594;2023-09-18T10:13:06;11.10;6.70;
12542;PMS3003;6337;49.556;25.594;2023-09-18T10:15:38;10.77;7.23;
12542;PMS3003;6337;49.556;25.594;2023-09-18T10:18:10;10.23;6.13;
12542;PMS3003;6337;49.556;25.594;2023-09-18T10:20:52;16.43;7.60;
12542;PMS3003;6337;49.556;25.594;2023-09-18T10:23:37;6.53;5.80;
12542;PMS3003;6337;49.556;25.594;2023-09-18T10:26:09;6.07;5.43;
12542;PMS3003;6337;49.556;25.594;2023-09-18T10:28:41;8.40;5.90;
12542;PMS3003;6337;49.556;25.594;2023-09-18T10:31:11;15.37;6.80;
12542;PMS3003;6337;49.556;25.594;2023-09-18T10:33:41;5.60;5.10;
12542;PMS3003;6337;49.556;25.594;2023-09-18T10:36:10;7.23;6.50;
12542;PMS3003;6337;49.556;25.594;2023-09-18T10:38:41;14.63;7.50;
12542;PMS3003;6337;49.556;25.594;2023-09-18T10:41:10;11.30;7.23;
12542;PMS3003;6337;49.556;25.594;2023-09-18T10:43:45;6.13;5.30;
12542;PMS3003;6337;49.556;25.594;2023-09-18T10:46:15;5.73;5.00;
12542;PMS3003;6337;49.556;25.594;2023-09-18T10:48:43;8.00;4.97;
12542;PMS3003;6337;49.556;25.594;2023-09-18T10:51:11;8.10;5.37;
12542;PMS3003;6337;49.556;25.594;2023-09-18T10:53:40;7.83;5.20;
12542;PMS3003;6337;49.556;25.594;2023-09-18T10:56:17;6.13;5.33;
12542;PMS3003;6337;49.556;25.594;2023-09-18T10:58:46;13.50;5.73;
12542;PMS3003;6337;49.556;25.594;2023-09-18T11:01:13;14.00;5.53;
12542;PMS3003;6337;49.556;25.594;2023-09-18T11:03:40;4.30;4.00;
12542;PMS3003;6337;49.556;25.594;2023-09-18T11:06:10;8.73;5.37;
12542;PMS3003;6337;49.556;25.594;2023-09-18T11:08:58;5.90;4.20;
12542;PMS3003;6337;49.556;25.594;2023-09-18T11:11:26;4.73;4.23;
12542;PMS3003;6337;49.556;25.594;2023-09-18T11:13:55;11.70;5.40;
12542;PMS3003;6337;49.556;25.594;2023-09-18T11:19:08;11.37;4.53;
12542;PMS3003;6337;49.556;25.594;2023-09-18T11:21:37;6.53;5.37;
12542;PMS3003;6337;49.556;25.594;2023-09-18T11:24:15;7.70;5.30;
12542;PMS3003;6337;49.556;25.594;2023-09-18T11:26:45;8.77;3.93;
12542;PMS3003;6337;49.556;25.594;2023-09-18T11:29:17;9.03;4.60;
12542;PMS3003;6337;49.556;25.594;2023-09-18T11:31:48;15.03;4.90;
12542;PMS3003;6337;49.556;25.594;2023-09-18T11:34:22;13.17;6.17;
12542;PMS3003;6337;49.556;25.594;2023-09-18T11:36:53;6.33;5.03;
12542;PMS3003;6337;49.556;25.594;2023-09-18T11:39:35;7.57;5.80;
12542;PMS3003;6337;49.556;25.594;2023-09-18T11:42:09;6.80;5.30;
12542;PMS3003;6337;49.556;25.594;2023-09-18T11:44:36;6.00;5.10;
12542;PMS3003;6337;49.556;25.594;2023-09-18T11:47:09;5.80;4.47;
12542;PMS3003;6337;49.556;25.594;2023-09-18T11:49:48;8.20;6.33;
12542;PMS3003;6337;49.556;25.594;2023-09-18T11:52:18;11.83;4.90;
12542;PMS3003;6337;49.556;25.594;2023-09-18T11:54:47;5.43;4.93;
12542;PMS3003;6337;49.556;25.594;2023-09-18T11:57:19;6.37;5.30;
12542;PMS3003;6337;49.556;25.594;2023-09-18T11:59:46;8.50;4.10;
12542;PMS3003;6337;49.556;25.594;2023-09-18T12:02:20;6.43;5.80;
12542;PMS3003;6337;49.556;25.594;2023-09-18T12:04:53;5.97;5.10;
12542;PMS3003;6337;49.556;25.594;2023-09-18T12:07:23;12.20;5.20;
12542;PMS3003;6337;49.556;25.594;2023-09-18T12:09:53;5.53;4.73;
12542;PMS3003;6337;49.556;25.594;2023-09-18T12:12:21;5.90;4.43;
12542;PMS3003;6337;49.556;25.594;2023-09-18T12:14:48;5.40;4.90;
12542;PMS3003;6337;49.556;25.594;2023-09-18T12:17:16;5.13;4.63;
12542;PMS3003;6337;49.556;25.594;2023-09-18T12:19:55;7.70;5.10;
12542;PMS3003;6337;49.556;25.594;2023-09-18T12:22:23;8.43;6.30;
12542;PMS3003;6337;49.556;25.594;2023-09-18T12:24:57;9.00;5.70;
12542;PMS3003;6337;49.556;25.594;2023-09-18T12:27:37;17.63;6.23;
12542;PMS3003;6337;49.556;25.594;2023-09-18T12:30:05;17.93;6.80;
12542;PMS3003;6337;49.556;25.594;2023-09-18T12:32:35;11.33;4.60;
12542;PMS3003;6337;49.556;25.594;2023-09-18T12:35:05;7.23;6.03;
12542;PMS3003;6337;49.556;25.594;2023-09-18T12:37:39;7.10;4.80;
12542;PMS3003;6337;49.556;25.594;2023-09-18T12:40:10;5.70;4.50;
12542;PMS3003;6337;49.556;25.594;2023-09-18T12:42:47;6.50;4.87;
12542;PMS3003;6337;49.556;25.594;2023-09-18T12:45:16;6.40;5.80;
12542;PMS3003;6337;49.556;25.594;2023-09-18T12:47:47;5.93;4.40;
12542;PMS3003;6337;49.556;25.594;2023-09-18T12:50:15;11.93;4.40;
12542;PMS3003;6337;49.556;25.594;2023-09-18T12:52:42;16.87;5.90;
12542;PMS3003;6337;49.556;25.594;2023-09-18T12:55:22;5.30;4.13;
12542;PMS3003;6337;49.556;25.594;2023-09-18T12:57:50;8.90;4.60;
12542;PMS3003;6337;49.556;25.594;2023-09-18T13:00:18;8.60;5.53;
12542;PMS3003;6337;49.556;25.594;2023-09-18T13:02:47;7.77;5.83;
12542;PMS3003;6337;49.556;25.594;2023-09-18T13:05:20;10.50;5.97;
12542;PMS3003;6337;49.556;25.594;2023-09-18T13:07:51;9.17;5.00;
12542;PMS3003;6337;49.556;25.594;2023-09-18T13:10:22;5.83;4.90;
12542;PMS3003;6337;49.556;25.594;2023-09-18T13:12:49;9.93;4.80;
12542;PMS3003;6337;49.556;25.594;2023-09-18T13:15:24;5.50;4.67;
12542;PMS3003;6337;49.556;25.594;2023-09-18T13:17:52;10.57;4.70;
12542;PMS3003;6337;49.556;25.594;2023-09-18T13:20:24;10.87;4.90;
12542;PMS3003;6337;49.556;25.594;2023-09-18T13:22:54;6.63;4.60;
12542;PMS3003;6337;49.556;25.594;2023-09-18T13:25:25;9.70;5.60;
12542;PMS3003;6337;49.556;25.594;2023-09-18T13:27:54;5.27;4.10;
12542;PMS3003;6337;49.556;25.594;2023-09-18T13:30:22;6.47;5.43;
12542;PMS3003;6337;49.556;25.594;2023-09-18T13:32:49;7.80;4.73;
12542;PMS3003;6337;49.556;25.594;2023-09-18T13:35:17;10.47;6.03;
12542;PMS3003;6337;49.556;25.594;2023-09-18T13:37:44;8.80;4.83;
12542;PMS3003;6337;49.556;25.594;2023-09-18T13:40:12;7.00;4.40;
12542;PMS3003;6337;49.556;25.594;2023-09-18T13:42:41;12.80;5.80;
12542;PMS3003;6337;49.556;25.594;2023-09-18T13:45:09;11.47;4.33;
12542;PMS3003;6337;49.556;25.594;2023-09-18T13:47:37;9.80;5.10;
12542;PMS3003;6337;49.556;25.594;2023-09-18T13:50:05;7.37;6.70;
12542;PMS3003;6337;49.556;25.594;2023-09-18T13:52:33;10.00;4.83;
12542;PMS3003;6337;49.556;25.594;2023-09-18T13:55:01;6.07;5.53;
12542;PMS3003;6337;49.556;25.594;2023-09-18T13:57:30;9.97;5.13;
12542;PMS3003;6337;49.556;25.594;2023-09-18T13:59:59;8.73;5.00;
12542;PMS3003;6337;49.556;25.594;2023-09-18T14:02:30;6.00;5.40;
12542;PMS3003;6337;49.556;25.594;2023-09-18T14:04:59;6.87;6.17;
12542;PMS3003;6337;49.556;25.594;2023-09-18T14:07:26;9.67;5.40;
12542;PMS3003;6337;49.556;25.594;2023-09-18T14:09:54;6.97;6.03;
12542;PMS3003;6337;49.556;25.594;2023-09-18T14:12:22;9.23;6.20;
12542;PMS3003;6337;49.556;25.594;2023-09-18T14:14:49;10.37;5.77;
12542;PMS3003;6337;49.556;25.594;2023-09-18T14:17:18;5.53;5.00;
12542;PMS3003;6337;49.556;25.594;2023-09-18T14:19:46;7.87;6.40;
12542;PMS3003;6337;49.556;25.594;2023-09-18T14:22:16;6.37;4.90;
12542;PMS3003;6337;49.556;25.594;2023-09-18T14:24:45;11.13;6.17;
12542;PMS3003;6337;49.556;25.594;2023-09-18T14:27:13;6.73;5.33;
12542;PMS3003;6337;49.556;25.594;2023-09-18T14:29:41;9.20;5.77;
12542;PMS3003;6337;49.556;25.594;2023-09-18T14:32:08;7.50;6.00;
12542;PMS3003;6337;49.556;25.594;2023-09-18T14:34:38;15.90;6.70;
12542;PMS3003;6337;49.556;25.594;2023-09-18T14:37:06;6.50;5.43;
12542;PMS3003;6337;49.556;25.594;2023-09-18T14:39:36;20.70;8.60;
12542;PMS3003;6337;49.556;25.594;2023-09-18T14:42:19;8.87;5.90;
12542;PMS3003;6337;49.556;25.594;2023-09-18T14:44:47;7.50;6.23;
12542;PMS3003;6337;49.556;25.594;2023-09-18T14:47:14;9.93;5.90;
12542;PMS3003;6337;49.556;25.594;2023-09-18T14:49:44;11.20;5.63;
12542;PMS3003;6337;49.556;25.594;2023-09-18T14:52:12;15.20;6.67;
12542;PMS3003;6337;49.556;25.594;2023-09-18T14:54:42;8.27;7.47;
12542;PMS3003;6337;49.556;25.594;2023-09-18T14:57:13;15.07;5.87;
12542;PMS3003;6337;49.556;25.594;2023-09-18T14:59:40;7.10;5.07;
12542;PMS3003;6337;49.556;25.594;2023-09-18T15:02:12;7.83;6.20;
12542;PMS3003;6337;49.556;25.594;2023-09-18T15:04:41;7.93;5.83;
12542;PMS3003;6337;49.556;25.594;2023-09-18T15:07:10;13.23;6.73;
12542;PMS3003;6337;49.556;25.594;2023-09-18T15:09:38;13.80;5.10;
12542;PMS3003;6337;49.556;25.594;2023-09-18T15:12:07;10.10;5.67;
12542;PMS3003;6337;49.556;25.594;2023-09-18T15:14:36;10.07;5.97;
12542;PMS3003;6337;49.556;25.594;2023-09-18T15:17:07;15.00;5.17;
12542;PMS3003;6337;49.556;25.594;2023-09-18T15:19:36;12.73;5.53;
12542;PMS3003;6337;49.556;25.594;2023-09-18T15:22:04;9.03;5.30;
12542;PMS3003;6337;49.556;25.594;2023-09-18T15:24:38;6.20;5.23;
12542;PMS3003;6337;49.556;25.594;2023-09-18T15:27:06;8.17;5.77;
12542;PMS3003;6337;49.556;25.594;2023-09-18T15:29:33;11.97;6.57;
12542;PMS3003;6337;49.556;25.594;2023-09-18T15:32:00;11.13;6.10;